Coffman Cove, Alaska
Current Conditions -  °F | °C
As of 4:53 PM on Monday 24 Nov 2014 (Local Time) from PAKW Reporting Station
Overcast Overcast  
Wind Chill: 38°   Ceiling: 3000
Heat Index: 41°   Visibility: 10mi
Dew Point: 38°   Wind: 5mph
Humidity: 89%   Direction: 200°SSW
Pressure: 29.95"   Gusts: NA
Location:  56.01°N, 132.83°W
Report Text: PAKW 250153Z AUTO 20004KT 10SM BKN030 OVC036 05/03 A2995 RMK AO2 RAE36 SLP143 P0003 T00500033 TSNO $
Loading
Personal Weather Stations






























Interactive Weather Map New forecast layout! Learn more

10-Day Weather Forecast

Advertisements
Track Severe Weather on mobile